Time;durP1;ratioP1;P1;durP2;ratioP2;P2;SDS_P1;SDS_P2;PMS_P1;PMS_P2;Temp;Humidity;BMP_temperature;BMP_pressure;BME280_temperature;BME280_humidity;BME280_pressure;Samples;Min_cycle;Max_cycle;Signal;HPM_P1;HPM_P2
2023/01/16 00:01:47;;;;;;;2.38;0.22;;;3.10;99.90;;;;;;5017566;28;20556;-75
2023/01/16 00:04:13;;;;;;;0.50;0.30;;;3.10;99.90;;;;;;5025651;28;20218;-75
2023/01/16 00:06:40;;;;;;;0.80;0.30;;;3.10;99.90;;;;;;5018554;28;20987;-75
2023/01/16 00:09:08;;;;;;;0.40;0.30;;;3.00;99.90;;;;;;5022007;28;20785;-75
2023/01/16 00:11:35;;;;;;;0.43;0.30;;;3.00;99.90;;;;;;5025365;28;20530;-75
2023/01/16 00:14:03;;;;;;;0.60;0.20;;;3.10;99.90;;;;;;5021010;28;20488;-75
2023/01/16 00:16:30;;;;;;;0.40;0.20;;;3.00;99.90;;;;;;5016323;28;20460;-75
2023/01/16 00:18:57;;;;;;;2.10;0.30;;;3.00;99.90;;;;;;5030651;28;20928;-75
2023/01/16 00:21:25;;;;;;;0.60;0.30;;;2.90;99.90;;;;;;5018376;28;20461;-74
2023/01/16 00:23:53;;;;;;;0.60;0.23;;;2.90;99.90;;;;;;5019307;28;20567;-75
2023/01/16 00:26:20;;;;;;;0.50;0.30;;;2.90;99.90;;;;;;5015379;28;20826;-75
2023/01/16 00:28:47;;;;;;;0.40;0.20;;;2.90;99.90;;;;;;5024414;28;20637;-75
2023/01/16 00:31:16;;;;;;;0.50;0.30;;;2.90;99.90;;;;;;5025758;28;21206;-75
2023/01/16 00:33:43;;;;;;;0.50;0.30;;;2.90;99.90;;;;;;5011233;28;20943;-75
2023/01/16 00:36:10;;;;;;;0.80;0.30;;;2.90;99.90;;;;;;5018660;28;20799;-75
2023/01/16 00:38:37;;;;;;;0.70;0.20;;;2.90;99.90;;;;;;5015426;28;20211;-75
2023/01/16 00:41:05;;;;;;;1.93;0.30;;;2.90;99.90;;;;;;5017472;28;20473;-75
2023/01/16 00:43:32;;;;;;;0.30;0.20;;;3.00;99.90;;;;;;5026939;28;20651;-75
2023/01/16 00:45:59;;;;;;;0.40;0.20;;;3.00;99.90;;;;;;5014032;28;20860;-75
2023/01/16 00:48:27;;;;;;;0.40;0.20;;;3.10;99.90;;;;;;5023043;28;20481;-75
2023/01/16 00:50:54;;;;;;;0.40;0.30;;;3.10;99.90;;;;;;5022948;28;20493;-75
2023/01/16 00:53:21;;;;;;;0.93;0.40;;;3.10;99.90;;;;;;5020413;28;20485;-75
2023/01/16 00:55:50;;;;;;;0.30;0.20;;;3.00;99.90;;;;;;5015680;28;20468;-75
2023/01/16 00:58:17;;;;;;;0.50;0.33;;;2.90;99.90;;;;;;5025795;28;20226;-75
2023/01/16 01:00:44;;;;;;;2.60;0.30;;;2.90;99.90;;;;;;5015003;28;20784;-75
2023/01/16 01:03:11;;;;;;;0.40;0.20;;;3.00;99.90;;;;;;5019271;28;20544;-75
2023/01/16 01:05:40;;;;;;;0.60;0.30;;;3.00;99.90;;;;;;5016462;28;20481;-75
2023/01/16 01:08:07;;;;;;;0.40;0.30;;;3.00;99.90;;;;;;5025879;28;20481;-74
2023/01/16 01:10:37;;;;;;;0.40;0.20;;;3.00;99.90;;;;;;5018162;28;20929;-74
2023/01/16 01:13:03;;;;;;;0.40;0.30;;;3.10;99.90;;;;;;5017788;28;20486;-74
2023/01/16 01:15:31;;;;;;;0.43;0.30;;;3.10;99.90;;;;;;5021081;28;20249;-75
2023/01/16 01:17:58;;;;;;;0.50;0.30;;;3.10;99.90;;;;;;5040886;28;20531;-75
2023/01/16 01:20:25;;;;;;;0.95;0.30;;;3.10;99.90;;;;;;5028632;28;20206;-75
2023/01/16 01:22:53;;;;;;;0.50;0.40;;;3.10;99.90;;;;;;5016300;28;20749;-75
2023/01/16 01:25:21;;;;;;;0.40;0.30;;;3.10;99.90;;;;;;5018784;28;20486;-75
2023/01/16 01:27:47;;;;;;;0.80;0.30;;;3.10;99.90;;;;;;5012902;28;20543;-75
2023/01/16 01:30:15;;;;;;;2.17;0.30;;;3.10;99.90;;;;;;5025362;28;20556;-75
2023/01/16 01:32:42;;;;;;;1.13;0.40;;;3.10;99.90;;;;;;5020695;28;20579;-74
2023/01/16 01:35:09;;;;;;;1.07;0.30;;;3.10;99.90;;;;;;5024364;28;20454;-74
2023/01/16 01:37:36;;;;;;;0.70;0.30;;;3.00;99.90;;;;;;5019280;28;20505;-74
2023/01/16 01:40:06;;;;;;;2.80;0.40;;;3.00;99.90;;;;;;5018134;28;20571;-74
2023/01/16 01:42:43;;;;;;;0.50;0.30;;;3.00;99.90;;;;;;5018752;28;20557;-74
2023/01/16 01:45:16;;;;;;;0.50;0.30;;;3.00;99.90;;;;;;5016632;28;21023;-74
2023/01/16 01:47:49;;;;;;;0.47;0.23;;;3.00;99.90;;;;;;5022156;28;20486;-74
2023/01/16 01:50:21;;;;;;;0.50;0.27;;;3.00;99.90;;;;;;5024165;28;20471;-74
2023/01/16 01:52:49;;;;;;;0.40;0.30;;;3.00;99.90;;;;;;5023521;28;20504;-74
2023/01/16 01:55:18;;;;;;;0.90;0.27;;;3.00;99.90;;;;;;5015171;28;20508;-74
2023/01/16 01:57:52;;;;;;;1.17;0.23;;;3.00;99.90;;;;;;5022722;28;20832;-75
2023/01/16 02:00:21;;;;;;;0.50;0.30;;;3.10;99.90;;;;;;5024890;28;20456;-74
2023/01/16 02:02:55;;;;;;;0.40;0.20;;;3.10;99.90;;;;;;5023367;28;20543;-75
2023/01/16 02:05:26;;;;;;;1.70;0.30;;;3.00;99.90;;;;;;5015343;28;20496;-74
2023/01/16 02:07:54;;;;;;;0.93;0.30;;;3.00;99.90;;;;;;5021931;28;20555;-75
2023/01/16 02:10:30;;;;;;;0.40;0.20;;;2.90;99.90;;;;;;5014190;28;20498;-74
2023/01/16 02:12:58;;;;;;;0.40;0.30;;;2.90;99.90;;;;;;5019286;28;20531;-74
2023/01/16 02:15:25;;;;;;;0.73;0.30;;;2.90;99.90;;;;;;5032185;28;20508;-75
2023/01/16 02:20:49;;;;;;;0.40;0.20;;;2.70;99.90;;;;;;5018334;28;20445;-74
2023/01/16 02:24:02;;;;;;;0.43;0.30;;;2.70;99.90;;;;;;5017705;28;20570;-75
2023/01/16 02:27:10;;;;;;;0.40;0.20;;;2.60;99.90;;;;;;5021132;28;20954;-75
2023/01/16 02:30:09;;;;;;;1.30;1.07;;;2.70;99.90;;;;;;5029679;28;20466;-75
2023/01/16 02:32:55;;;;;;;1.23;0.27;;;2.60;99.90;;;;;;5022549;28;20477;-74
2023/01/16 02:35:49;;;;;;;0.37;0.20;;;2.60;99.90;;;;;;5010404;28;20928;-74
2023/01/16 02:38:27;;;;;;;1.40;0.40;;;2.60;99.90;;;;;;5020494;28;20450;-74
2023/01/16 02:41:03;;;;;;;0.70;0.50;;;2.60;99.90;;;;;;5013862;28;20462;-75
2023/01/16 02:43:37;;;;;;;2.50;0.30;;;2.60;99.90;;;;;;5021910;28;20242;-75
2023/01/16 02:46:14;;;;;;;0.60;0.30;;;2.50;99.90;;;;;;5022548;28;20888;-75
2023/01/16 02:48:50;;;;;;;0.60;0.30;;;2.50;99.90;;;;;;5013543;28;20502;-75
2023/01/16 02:51:28;;;;;;;0.50;0.20;;;2.50;99.90;;;;;;5021662;28;20465;-74
2023/01/16 02:54:02;;;;;;;0.40;0.20;;;2.50;99.90;;;;;;5016439;28;20470;-75
2023/01/16 02:56:36;;;;;;;1.17;0.30;;;2.40;99.90;;;;;;5015420;28;20449;-74
2023/01/16 02:59:04;;;;;;;0.40;0.20;;;2.40;99.90;;;;;;5023970;28;20546;-74
2023/01/16 03:01:34;;;;;;;0.73;0.73;;;2.40;99.90;;;;;;5011977;28;20549;-75
2023/01/16 03:04:39;;;;;;;0.40;0.30;;;2.40;99.90;;;;;;5020198;28;20988;-75
2023/01/16 03:07:26;;;;;;;0.40;0.30;;;2.40;99.90;;;;;;5017220;28;20940;-74
2023/01/16 03:10:02;;;;;;;0.40;0.20;;;2.40;99.90;;;;;;5018841;28;20497;-74
2023/01/16 03:12:37;;;;;;;0.40;0.20;;;2.40;99.90;;;;;;5015291;28;20542;-74
2023/01/16 03:15:11;;;;;;;0.60;0.30;;;2.30;99.90;;;;;;5014688;28;20918;-75
2023/01/16 03:17:52;;;;;;;0.40;0.27;;;2.30;99.90;;;;;;5012950;28;20860;-75
2023/01/16 03:20:30;;;;;;;0.40;0.30;;;2.30;99.90;;;;;;5023235;28;20477;-74
2023/01/16 03:23:05;;;;;;;0.40;0.30;;;2.30;99.90;;;;;;5007186;28;21068;-74
2023/01/16 03:25:39;;;;;;;0.60;0.37;;;2.30;99.90;;;;;;5019942;28;20526;-74
2023/01/16 03:28:12;;;;;;;1.13;0.30;;;2.30;99.90;;;;;;5011947;28;20535;-75
2023/01/16 03:30:50;;;;;;;0.80;0.30;;;2.30;99.90;;;;;;5027277;28;20475;-74
2023/01/16 03:33:23;;;;;;;1.03;0.50;;;2.20;99.90;;;;;;5010075;28;20861;-75
2023/01/16 03:35:55;;;;;;;0.50;0.50;;;2.20;99.90;;;;;;5025368;28;20492;-74
2023/01/16 03:38:24;;;;;;;1.73;0.40;;;2.20;99.90;;;;;;5035999;28;20530;-74
2023/01/16 03:40:53;;;;;;;0.47;0.40;;;2.20;99.90;;;;;;5022227;28;20994;-75
2023/01/16 03:43:25;;;;;;;0.52;0.30;;;2.20;99.90;;;;;;5024123;28;20489;-74
2023/01/16 03:45:56;;;;;;;1.03;0.20;;;2.20;99.90;;;;;;5018371;28;20693;-75
2023/01/16 03:48:27;;;;;;;0.80;0.60;;;2.30;99.90;;;;;;5019589;28;20482;-74
2023/01/16 03:51:00;;;;;;;0.67;0.50;;;2.20;99.90;;;;;;5020835;28;20764;-74
2023/01/16 03:53:30;;;;;;;1.90;0.40;;;2.30;99.90;;;;;;5025340;28;21332;-74
2023/01/16 03:56:04;;;;;;;0.47;0.30;;;2.40;99.90;;;;;;5014106;28;20835;-74
2023/01/16 03:58:36;;;;;;;1.80;0.40;;;2.40;99.90;;;;;;5021021;28;20493;-74
2023/01/16 04:01:13;;;;;;;0.43;0.30;;;2.40;99.90;;;;;;5020873;28;20531;-74
2023/01/16 04:03:45;;;;;;;0.43;0.30;;;2.50;99.90;;;;;;5023192;28;20513;-75
2023/01/16 04:06:18;;;;;;;0.50;0.40;;;2.30;99.90;;;;;;5020190;28;20497;-74
2023/01/16 04:08:47;;;;;;;0.83;0.40;;;2.30;99.90;;;;;;5022961;28;20938;-74
2023/01/16 04:11:19;;;;;;;1.43;0.40;;;2.20;99.90;;;;;;5018509;28;20491;-74
2023/01/16 04:13:49;;;;;;;0.50;0.40;;;2.20;99.90;;;;;;5019915;28;20515;-74
2023/01/16 04:16:18;;;;;;;0.52;0.28;;;2.20;99.90;;;;;;5027881;28;20492;-74
2023/01/16 04:18:46;;;;;;;0.67;0.30;;;2.30;99.90;;;;;;5022325;28;20551;-74
2023/01/16 04:21:14;;;;;;;0.40;0.30;;;2.40;99.90;;;;;;5021400;28;20547;-74
2023/01/16 04:23:42;;;;;;;0.73;0.30;;;2.40;99.90;;;;;;5016583;28;20810;-74
2023/01/16 04:26:09;;;;;;;0.70;0.33;;;2.30;99.90;;;;;;5025495;28;20469;-74
2023/01/16 04:28:35;;;;;;;1.27;0.40;;;2.30;99.90;;;;;;5020307;28;20547;-74
2023/01/16 04:31:02;;;;;;;0.87;0.40;;;2.30;99.90;;;;;;5020482;28;20808;-74
2023/01/16 04:33:29;;;;;;;1.20;0.50;;;2.30;99.90;;;;;;5022119;28;21280;-74
2023/01/16 04:35:56;;;;;;;3.67;2.03;;;2.30;99.90;;;;;;5020458;28;20568;-74
2023/01/16 04:38:24;;;;;;;2.00;0.50;;;2.20;99.90;;;;;;5028509;28;20512;-74
2023/01/16 04:40:54;;;;;;;1.17;0.40;;;2.20;99.90;;;;;;5019335;28;20506;-75
2023/01/16 04:43:21;;;;;;;0.90;0.40;;;2.20;99.90;;;;;;5023161;28;20591;-74
2023/01/16 04:45:48;;;;;;;0.40;0.30;;;2.10;99.90;;;;;;5025355;28;20544;-74
2023/01/16 04:48:16;;;;;;;2.33;0.50;;;2.10;99.90;;;;;;5017560;28;20508;-74
2023/01/16 04:50:43;;;;;;;0.50;0.30;;;2.10;99.90;;;;;;5009970;28;20477;-74
2023/01/16 04:53:10;;;;;;;1.47;0.50;;;2.10;99.90;;;;;;5019308;28;20497;-74
2023/01/16 04:55:38;;;;;;;9.33;3.27;;;2.00;99.90;;;;;;5022317;28;20497;-74
2023/01/16 04:58:05;;;;;;;9.77;7.83;;;2.00;99.90;;;;;;5021566;28;20473;-74
2023/01/16 05:00:32;;;;;;;8.50;7.63;;;2.10;99.90;;;;;;5021955;28;20562;-74
2023/01/16 05:02:59;;;;;;;4.10;1.33;;;2.00;99.90;;;;;;5021064;28;20540;-74
2023/01/16 05:05:26;;;;;;;2.70;1.40;;;2.10;99.90;;;;;;5022031;28;21003;-74
2023/01/16 05:10:34;;;;;;;3.03;1.20;;;2.10;99.90;;;;;;5023349;28;20444;-74
2023/01/16 05:13:02;;;;;;;2.27;1.07;;;2.10;99.90;;;;;;5018878;28;20461;-74
2023/01/16 05:15:29;;;;;;;0.60;0.50;;;2.00;99.90;;;;;;5025760;28;20482;-74
2023/01/16 05:17:57;;;;;;;1.23;0.60;;;2.20;99.90;;;;;;5026288;28;20449;-74
2023/01/16 05:20:23;;;;;;;3.57;0.80;;;2.10;99.90;;;;;;5018158;28;20463;-74
2023/01/16 05:22:50;;;;;;;2.87;0.70;;;2.00;99.90;;;;;;5016110;28;20807;-74
2023/01/16 05:25:17;;;;;;;1.20;0.70;;;1.90;99.90;;;;;;5018000;28;20592;-74
2023/01/16 05:27:49;;;;;;;2.47;0.70;;;1.80;99.90;;;;;;5022246;28;20479;-74
2023/01/16 05:30:17;;;;;;;1.90;0.70;;;1.90;99.90;;;;;;5022825;28;20548;-74
2023/01/16 05:32:45;;;;;;;0.77;0.70;;;1.80;99.90;;;;;;5019166;28;20508;-74
2023/01/16 05:35:13;;;;;;;2.40;0.90;;;1.90;99.90;;;;;;5021280;28;20518;-74
2023/01/16 05:37:39;;;;;;;0.50;0.50;;;1.90;99.90;;;;;;5022254;28;20764;-74
2023/01/16 05:40:08;;;;;;;0.80;0.50;;;1.90;99.90;;;;;;5021370;28;20657;-74
2023/01/16 05:42:34;;;;;;;0.90;0.80;;;1.90;99.90;;;;;;5023162;28;20505;-74
2023/01/16 05:45:01;;;;;;;1.30;0.87;;;1.80;99.90;;;;;;5018971;28;20883;-74
2023/01/16 05:47:30;;;;;;;2.20;0.70;;;1.90;99.90;;;;;;5023216;28;21144;-74
2023/01/16 05:49:58;;;;;;;1.07;0.70;;;1.80;99.90;;;;;;5014965;28;20985;-74
2023/01/16 05:52:25;;;;;;;0.60;0.50;;;1.90;99.90;;;;;;5020659;28;20531;-74
2023/01/16 05:54:52;;;;;;;0.60;0.50;;;1.90;99.90;;;;;;5019736;28;20463;-74
2023/01/16 05:57:20;;;;;;;1.23;0.63;;;2.00;99.90;;;;;;5022804;28;20461;-74
2023/01/16 05:59:49;;;;;;;4.40;0.80;;;2.00;99.90;;;;;;5017519;28;20462;-74
2023/01/16 06:02:15;;;;;;;0.67;0.67;;;2.00;99.90;;;;;;5023967;28;20498;-74
2023/01/16 06:04:44;;;;;;;1.90;0.80;;;2.00;99.90;;;;;;5019818;28;20524;-74
2023/01/16 06:07:12;;;;;;;0.77;0.50;;;2.00;99.90;;;;;;5021031;28;20501;-74
2023/01/16 06:09:40;;;;;;;1.07;0.63;;;2.00;99.90;;;;;;5029704;28;20493;-74
2023/01/16 06:12:08;;;;;;;2.90;0.50;;;2.00;99.90;;;;;;5023767;28;20743;-74
2023/01/16 06:14:35;;;;;;;0.70;0.50;;;2.00;99.90;;;;;;5023894;28;20454;-74
2023/01/16 06:17:02;;;;;;;1.03;0.60;;;2.00;99.90;;;;;;5015543;28;20474;-74
2023/01/16 06:19:29;;;;;;;1.23;0.57;;;2.00;99.90;;;;;;5026980;28;20492;-74
2023/01/16 06:21:57;;;;;;;1.70;0.60;;;2.00;99.90;;;;;;5017784;28;20457;-73
2023/01/16 06:24:24;;;;;;;35.50;18.25;;;2.10;99.90;;;;;;5014142;28;20911;-73
2023/01/16 06:26:51;;;;;;;4.47;1.43;;;2.10;99.90;;;;;;5020022;28;20246;-74
2023/01/16 06:29:18;;;;;;;5.93;4.07;;;2.00;99.90;;;;;;5017996;28;20501;-74
2023/01/16 06:31:44;;;;;;;3.30;0.93;;;2.00;99.90;;;;;;5014096;28;20477;-74
2023/01/16 06:34:12;;;;;;;1.50;0.60;;;2.00;99.90;;;;;;5015958;28;20569;-74
2023/01/16 06:36:41;;;;;;;1.90;0.60;;;2.00;99.90;;;;;;5026458;28;20962;-74
2023/01/16 06:39:10;;;;;;;1.53;0.70;;;2.10;99.90;;;;;;5024934;28;20839;-74
2023/01/16 06:41:37;;;;;;;1.20;0.50;;;2.10;99.90;;;;;;5027340;28;20456;-73
2023/01/16 06:44:05;;;;;;;0.67;0.50;;;2.10;99.90;;;;;;5026621;28;20517;-73
2023/01/16 06:46:32;;;;;;;1.40;0.63;;;2.00;99.90;;;;;;5022643;28;20500;-74
2023/01/16 06:48:59;;;;;;;0.73;0.40;;;2.10;99.90;;;;;;5019676;28;20267;-73
2023/01/16 06:51:25;;;;;;;0.77;0.50;;;2.10;99.90;;;;;;5007242;28;20626;-73
2023/01/16 06:53:52;;;;;;;1.70;1.57;;;2.00;99.90;;;;;;5021078;28;20478;-74
2023/01/16 06:56:21;;;;;;;0.70;0.40;;;2.00;99.90;;;;;;5020575;28;20515;-73
2023/01/16 06:58:48;;;;;;;0.93;0.60;;;2.10;99.90;;;;;;5020638;28;20497;-74
2023/01/16 07:01:14;;;;;;;5.97;5.60;;;2.00;99.90;;;;;;5023530;28;20578;-73
2023/01/16 07:03:41;;;;;;;0.90;0.82;;;2.00;99.90;;;;;;5024415;28;20516;-73
2023/01/16 07:06:08;;;;;;;0.80;0.50;;;2.00;99.90;;;;;;5015185;28;20230;-75
2023/01/16 07:08:35;;;;;;;1.27;1.27;;;2.20;99.90;;;;;;5023103;28;20211;-73
2023/01/16 07:11:02;;;;;;;0.80;0.40;;;2.30;99.90;;;;;;5021951;28;20519;-73
2023/01/16 07:13:30;;;;;;;1.03;0.90;;;2.50;99.90;;;;;;5023807;28;21084;-73
2023/01/16 07:24:21;;;;;;;3.13;0.40;;;2.60;99.90;;;;;;5006713;28;20484;-73
2023/01/16 07:26:51;;;;;;;0.50;0.40;;;2.70;99.90;;;;;;5023712;28;20493;-74
2023/01/16 07:29:19;;;;;;;0.40;0.20;;;2.60;99.90;;;;;;5019716;28;20535;-73
2023/01/16 07:31:47;;;;;;;0.40;0.20;;;2.60;99.90;;;;;;5017256;28;20838;-74
2023/01/16 07:34:14;;;;;;;1.90;0.30;;;2.60;99.90;;;;;;5018246;28;20454;-74
2023/01/16 07:36:41;;;;;;;0.40;0.20;;;2.60;99.90;;;;;;5014730;28;20481;-74
2023/01/16 07:39:08;;;;;;;0.57;0.20;;;2.60;99.90;;;;;;5021697;28;20457;-73
2023/01/16 07:41:35;;;;;;;0.40;0.30;;;2.60;99.90;;;;;;5023768;28;20906;-73
2023/01/16 07:44:02;;;;;;;0.50;0.30;;;2.60;99.90;;;;;;5019035;28;20488;-73
2023/01/16 07:46:30;;;;;;;0.40;0.30;;;2.70;99.90;;;;;;5018489;28;21153;-73
2023/01/16 07:48:57;;;;;;;0.40;0.20;;;2.70;99.90;;;;;;5021791;28;20972;-74
2023/01/16 07:51:24;;;;;;;0.50;0.30;;;2.80;99.90;;;;;;5022383;28;20486;-74
2023/01/16 07:53:51;;;;;;;0.30;0.20;;;3.00;99.90;;;;;;5019318;28;20508;-74
2023/01/16 07:56:18;;;;;;;0.30;0.20;;;3.10;99.90;;;;;;5024935;28;20933;-73
2023/01/16 07:58:46;;;;;;;0.30;0.20;;;3.30;99.90;;;;;;5023666;28;20453;-73
2023/01/16 08:01:13;;;;;;;0.30;0.20;;;3.40;99.90;;;;;;5020120;28;20457;-73
2023/01/16 08:03:41;;;;;;;0.30;0.20;;;3.50;99.90;;;;;;5020621;28;20497;-73
2023/01/16 08:06:08;;;;;;;0.30;0.20;;;3.60;99.90;;;;;;5021260;28;21001;-74
2023/01/16 08:08:35;;;;;;;0.30;0.17;;;3.70;99.90;;;;;;5021815;28;20477;-73
2023/01/16 08:11:35;;;;;;;0.53;0.20;;;3.80;99.90;;;;;;5012205;28;20470;-73
2023/01/16 08:13:51;;;;;;;0.30;0.20;;;3.80;99.90;;;;;;5019013;28;20449;-74
2023/01/16 08:16:18;;;;;;;0.30;0.20;;;3.80;99.90;;;;;;5024100;28;20480;-74
2023/01/16 08:18:48;;;;;;;0.30;0.20;;;3.70;99.90;;;;;;5021609;28;20870;-74
2023/01/16 08:21:16;;;;;;;0.40;0.30;;;3.70;99.90;;;;;;5014900;28;20208;-74
2023/01/16 08:23:43;;;;;;;0.30;0.20;;;3.70;99.90;;;;;;5020947;28;20541;-73
2023/01/16 08:26:10;;;;;;;0.40;0.20;;;3.90;99.90;;;;;;5019574;28;20521;-73
2023/01/16 08:28:37;;;;;;;0.30;0.20;;;3.90;99.90;;;;;;5016908;28;20493;-73
2023/01/16 08:31:07;;;;;;;0.40;0.20;;;4.00;99.90;;;;;;5021757;28;20838;-74
2023/01/16 08:33:35;;;;;;;0.30;0.20;;;4.10;99.90;;;;;;5022933;28;20465;-73
2023/01/16 08:36:03;;;;;;;0.40;0.20;;;4.10;99.90;;;;;;5013222;28;20643;-74
2023/01/16 08:38:30;;;;;;;1.53;0.20;;;4.20;99.90;;;;;;5024265;28;20457;-73
2023/01/16 08:40:57;;;;;;;0.40;0.20;;;4.30;99.90;;;;;;5011225;28;20474;-73
2023/01/16 08:51:47;;;;;;;0.60;0.20;;;4.70;99.90;;;;;;5023536;28;20516;-74
2023/01/16 08:54:14;;;;;;;0.40;0.20;;;4.80;99.90;;;;;;5023111;28;20918;-73
2023/01/16 08:56:42;;;;;;;0.40;0.20;;;4.90;99.90;;;;;;5018797;28;20482;-74
2023/01/16 08:59:09;;;;;;;0.40;0.20;;;5.00;99.90;;;;;;5014239;28;20979;-73
2023/01/16 09:01:38;;;;;;;0.40;0.20;;;5.10;99.90;;;;;;5022953;28;20488;-73
2023/01/16 09:04:05;;;;;;;0.40;0.20;;;5.20;99.90;;;;;;5010930;28;20461;-74
2023/01/16 09:06:35;;;;;;;0.40;0.20;;;5.20;99.90;;;;;;5009893;28;20601;-73
2023/01/16 09:09:04;;;;;;;0.30;0.20;;;5.30;99.90;;;;;;5007459;28;20881;-74
2023/01/16 09:14:15;;;;;;;0.73;0.50;;;5.10;99.90;;;;;;5012796;28;20452;-73
2023/01/16 09:16:42;;;;;;;0.50;0.47;;;4.70;99.90;;;;;;5014529;28;20494;-73
2023/01/16 09:19:09;;;;;;;0.63;0.40;;;4.50;99.90;;;;;;5005868;28;20490;-73
2023/01/16 09:21:36;;;;;;;0.30;0.20;;;4.70;99.90;;;;;;5009453;28;20499;-73
2023/01/16 09:24:04;;;;;;;0.40;0.20;;;5.00;99.90;;;;;;5007463;28;20486;-74
2023/01/16 09:26:31;;;;;;;0.60;0.20;;;5.10;99.90;;;;;;5011814;28;21040;-73
2023/01/16 09:28:58;;;;;;;0.37;0.20;;;5.20;99.90;;;;;;5007838;28;20494;-74
2023/01/16 09:31:25;;;;;;;0.50;0.20;;;5.30;99.90;;;;;;5006943;28;20502;-74
2023/01/16 09:33:54;;;;;;;0.30;0.20;;;5.40;99.90;;;;;;5020587;28;21227;-74
2023/01/16 09:36:21;;;;;;;0.40;0.23;;;5.60;99.90;;;;;;5025609;28;20457;-74
2023/01/16 09:38:48;;;;;;;0.40;0.30;;;5.70;99.90;;;;;;5018861;28;20930;-75
2023/01/16 09:43:35;;;;;;;0.40;0.20;;;5.80;99.90;;;;;;5013758;28;20494;-75
2023/01/16 09:44:07;;;;;;;0.40;0.20;;;5.80;99.90;;;;;;5006994;28;20214;-75
2023/01/16 09:46:39;;;;;;;0.40;0.20;;;6.00;99.90;;;;;;5018428;28;20826;-75
2023/01/16 09:49:19;;;;;;;0.30;0.20;;;6.00;99.90;;;;;;5009987;28;20490;-80
2023/01/16 10:00:16;;;;;;;0.40;0.20;;;6.00;99.90;;;;;;5007965;28;20466;-74
2023/01/16 10:02:43;;;;;;;0.40;0.20;;;5.90;99.90;;;;;;5012949;28;20967;-74
2023/01/16 10:05:13;;;;;;;0.40;0.20;;;5.90;99.90;;;;;;5013555;28;20569;-74
2023/01/16 10:07:55;;;;;;;0.40;0.20;;;5.90;99.90;;;;;;5023528;28;21219;-74
2023/01/16 10:10:43;;;;;;;0.30;0.20;;;6.00;99.90;;;;;;5018382;28;20541;-74
2023/01/16 10:13:25;;;;;;;0.50;0.20;;;6.00;99.90;;;;;;5024479;28;20548;-74
2023/01/16 10:16:03;;;;;;;0.40;0.20;;;6.00;99.90;;;;;;5021964;28;20935;-74
2023/01/16 10:18:38;;;;;;;0.40;0.20;;;6.00;99.90;;;;;;5017927;28;20566;-74
2023/01/16 10:21:21;;;;;;;0.40;0.20;;;6.20;99.90;;;;;;5017365;28;20608;-74
2023/01/16 10:23:54;;;;;;;0.97;0.20;;;6.20;99.90;;;;;;5013980;28;20529;-74
2023/01/16 10:26:28;;;;;;;0.40;0.20;;;6.20;99.90;;;;;;5020209;28;20485;-74
2023/01/16 10:29:05;;;;;;;0.40;0.30;;;6.30;99.90;;;;;;5008524;28;20556;-75
2023/01/16 10:31:39;;;;;;;0.50;0.30;;;6.20;99.90;;;;;;5006566;28;20235;-76
2023/01/16 10:34:11;;;;;;;0.40;0.20;;;6.30;99.90;;;;;;5010986;28;20483;-75
2023/01/16 10:36:44;;;;;;;0.98;0.30;;;6.40;99.90;;;;;;5022483;28;20453;-76
2023/01/16 10:39:13;;;;;;;0.30;0.20;;;6.40;99.90;;;;;;5019189;28;20469;-75
2023/01/16 10:50:08;;;;;;;0.30;0.20;;;6.60;99.90;;;;;;5008662;28;20481;-76
2023/01/16 10:52:35;;;;;;;0.40;0.20;;;6.70;99.90;;;;;;5011619;28;20700;-75
2023/01/16 10:55:04;;;;;;;0.40;0.20;;;6.70;99.90;;;;;;5012108;28;20501;-76
2023/01/16 10:57:31;;;;;;;0.40;0.20;;;6.80;99.90;;;;;;5015001;28;20962;-76
2023/01/16 11:00:04;;;;;;;0.40;0.20;;;6.70;99.90;;;;;;5010627;28;20220;-74
2023/01/16 11:02:35;;;;;;;0.40;0.20;;;6.70;99.90;;;;;;5016055;28;21031;-74
2023/01/16 11:05:02;;;;;;;0.40;0.20;;;6.70;99.90;;;;;;5004039;28;21033;-75
2023/01/16 11:07:30;;;;;;;0.40;0.23;;;6.70;99.90;;;;;;5009623;28;20480;-75
2023/01/16 11:09:59;;;;;;;0.40;0.23;;;6.80;99.90;;;;;;5015323;28;20461;-75
2023/01/16 11:18:31;;;;;;;0.40;0.30;;;6.90;99.90;;;;;;5017524;28;20475;-74
2023/01/16 11:21:01;;;;;;;0.40;0.20;;;6.70;99.90;;;;;;5019936;28;20983;-74
2023/01/16 11:23:38;;;;;;;0.57;0.20;;;6.80;99.90;;;;;;5016591;28;20738;-75
2023/01/16 11:26:06;;;;;;;1.07;0.30;;;6.70;99.90;;;;;;5021871;28;20500;-75
2023/01/16 11:28:35;;;;;;;0.40;0.20;;;6.60;99.90;;;;;;5021488;28;20919;-74
2023/01/16 11:31:08;;;;;;;0.50;0.30;;;6.50;99.90;;;;;;5019691;28;20509;-74
2023/01/16 11:33:39;;;;;;;0.40;0.30;;;6.50;99.90;;;;;;5016550;28;20976;-74
2023/01/16 11:36:07;;;;;;;0.50;0.47;;;6.50;99.90;;;;;;5008641;28;20209;-74
2023/01/16 11:38:38;;;;;;;0.40;0.30;;;6.60;99.90;;;;;;5008345;28;20629;-74
2023/01/16 11:41:08;;;;;;;0.40;0.20;;;6.50;99.90;;;;;;5008138;28;20840;-75
2023/01/16 11:46:31;;;;;;;0.40;0.20;;;6.40;99.90;;;;;;5010399;28;20538;-75
2023/01/16 11:49:02;;;;;;;0.47;0.20;;;6.50;99.90;;;;;;5011873;28;20505;-74
2023/01/16 11:51:30;;;;;;;0.43;0.30;;;6.50;99.90;;;;;;5006355;28;20473;-74
2023/01/16 11:53:59;;;;;;;0.53;0.23;;;6.50;99.90;;;;;;5007516;28;20507;-75
2023/01/16 11:56:49;;;;;;;2.50;0.23;;;6.60;99.90;;;;;;5008656;28;20457;-74
2023/01/16 11:59:46;;;;;;;0.50;0.50;;;6.70;99.90;;;;;;5007272;28;20490;-75
2023/01/16 12:02:43;;;;;;;0.40;0.20;;;6.90;99.90;;;;;;5008558;28;20461;-75
2023/01/16 12:08:21;;;;;;;0.40;0.20;;;7.30;99.90;;;;;;5013087;28;20503;-75
2023/01/16 12:10:56;;;;;;;0.97;0.30;;;7.50;99.90;;;;;;5027303;28;20455;-74
2023/01/16 12:16:21;;;;;;;0.47;0.30;;;7.20;99.90;;;;;;5015966;28;20452;-74
2023/01/16 12:19:04;;;;;;;0.60;0.30;;;7.20;99.90;;;;;;5015091;28;20464;-74
2023/01/16 12:21:36;;;;;;;0.60;0.30;;;7.20;99.90;;;;;;5016141;28;20500;-74
2023/01/16 12:24:15;;;;;;;0.40;0.20;;;7.10;99.90;;;;;;5007616;28;20607;-75
2023/01/16 12:26:51;;;;;;;0.53;0.20;;;7.10;99.90;;;;;;5020704;28;20547;-74
2023/01/16 12:29:32;;;;;;;0.30;0.20;;;7.20;99.90;;;;;;5019307;28;21171;-74
2023/01/16 12:32:26;;;;;;;0.50;0.30;;;7.20;99.90;;;;;;5025795;28;20551;-74
2023/01/16 12:35:21;;;;;;;0.50;0.30;;;7.20;99.90;;;;;;5024033;28;20481;-74
2023/01/16 12:38:09;;;;;;;0.40;0.20;;;7.10;99.90;;;;;;5023402;28;20648;-74
2023/01/16 12:43:53;;;;;;;0.40;0.30;;;7.30;99.90;;;;;;5013617;28;20483;-74
2023/01/16 12:46:28;;;;;;;0.40;0.20;;;7.20;99.90;;;;;;5024120;28;21044;-74
2023/01/16 12:49:13;;;;;;;0.40;0.20;;;7.40;99.90;;;;;;5025994;28;20934;-74
2023/01/16 12:51:53;;;;;;;0.40;0.20;;;7.50;99.90;;;;;;5023325;28;20490;-74
2023/01/16 12:54:50;;;;;;;1.37;0.80;;;7.40;99.90;;;;;;5014512;28;20466;-74
2023/01/16 12:57:39;;;;;;;0.40;0.20;;;7.50;99.90;;;;;;5019307;28;20489;-75
2023/01/16 13:00:12;;;;;;;0.40;0.20;;;7.30;99.90;;;;;;5022192;28;20961;-74
2023/01/16 13:02:44;;;;;;;0.40;0.20;;;7.40;99.90;;;;;;5011742;28;20449;-74
2023/01/16 13:05:18;;;;;;;0.30;0.20;;;7.60;99.90;;;;;;5011858;28;20517;-74
2023/01/16 13:07:52;;;;;;;0.60;0.20;;;7.60;99.90;;;;;;5016908;28;20484;-75
2023/01/16 13:13:24;;;;;;;0.40;0.20;;;7.60;99.90;;;;;;5021832;28;20453;-75
2023/01/16 13:15:58;;;;;;;0.40;0.20;;;7.70;99.90;;;;;;5021903;28;20509;-75
2023/01/16 13:18:27;;;;;;;0.40;0.20;;;7.70;99.90;;;;;;5031693;28;20202;-75
2023/01/16 13:20:57;;;;;;;0.63;0.20;;;7.70;99.90;;;;;;5013843;28;20491;-74
2023/01/16 13:23:29;;;;;;;0.60;0.30;;;7.80;99.90;;;;;;5020316;28;20578;-74
2023/01/16 13:26:02;;;;;;;0.40;0.23;;;7.60;99.90;;;;;;5025978;28;20573;-75
2023/01/16 13:28:37;;;;;;;1.03;0.20;;;7.50;99.90;;;;;;5028908;28;20467;-74
2023/01/16 13:31:09;;;;;;;0.40;0.20;;;7.40;99.90;;;;;;5023950;28;20504;-74
2023/01/16 13:33:39;;;;;;;0.30;0.20;;;7.40;99.90;;;;;;5022057;28;20812;-74
2023/01/16 13:36:23;;;;;;;0.40;0.20;;;7.50;99.90;;;;;;5032579;28;20206;-75
2023/01/16 13:39:07;;;;;;;0.40;0.20;;;7.50;99.90;;;;;;5020597;28;20335;-75
2023/01/16 13:41:39;;;;;;;0.37;0.20;;;7.60;99.90;;;;;;5023738;28;20265;-75
2023/01/16 13:47:05;;;;;;;0.40;0.27;;;7.60;99.90;;;;;;5019829;28;20508;-75
2023/01/16 13:49:32;;;;;;;1.03;0.33;;;7.60;99.90;;;;;;5021367;28;20488;-75
2023/01/16 13:52:03;;;;;;;0.40;0.20;;;7.50;99.90;;;;;;5020672;28;20574;-75
2023/01/16 13:54:37;;;;;;;1.00;0.33;;;7.20;99.90;;;;;;5023419;28;20200;-75
2023/01/16 13:57:13;;;;;;;3.42;0.40;;;6.90;99.90;;;;;;5023936;28;20449;-75
2023/01/16 13:59:47;;;;;;;1.57;0.30;;;6.70;99.90;;;;;;5025194;28;20239;-75
2023/01/16 14:02:40;;;;;;;0.40;0.30;;;6.70;99.90;;;;;;5022428;28;20489;-75
2023/01/16 14:05:23;;;;;;;0.40;0.20;;;6.60;99.90;;;;;;5018530;28;20460;-75
2023/01/16 14:11:23;;;;;;;0.40;0.20;;;6.40;99.90;;;;;;5020022;28;20451;-74
2023/01/16 14:14:10;;;;;;;0.40;0.30;;;6.40;99.90;;;;;;5016276;28;20505;-75
2023/01/16 14:16:38;;;;;;;0.50;0.30;;;6.30;99.90;;;;;;5022670;28;20532;-75
2023/01/16 14:19:22;;;;;;;0.50;0.30;;;6.20;99.90;;;;;;5022384;28;20477;-75
2023/01/16 14:24:00;;;;;;;0.40;0.20;;;6.10;99.90;;;;;;5021873;28;20544;-75
2023/01/16 14:24:52;;;;;;;0.97;0.20;;;6.10;99.90;;;;;;5016788;28;20466;-75
2023/01/16 14:27:24;;;;;;;0.37;0.20;;;6.10;99.90;;;;;;5022471;28;20482;-75
2023/01/16 14:29:54;;;;;;;0.50;0.20;;;6.00;99.90;;;;;;5020074;28;20544;-75